sensor_id;sensor_type;location;lat;lon;timestamp;noise_LAeq;noise_LA_min;noise_LA_max;noise_LA01;noise_LA95
69609;Laerm;56815;52.320;4.858;2023-06-19T00:00:01;33.16;31.37;34.90;;
69609;Laerm;56815;52.320;4.858;2023-06-19T00:00:25;33.03;31.11;35.33;;
69609;Laerm;56815;52.320;4.858;2023-06-19T00:01:06;32.48;30.41;34.66;;
69609;Laerm;56815;52.320;4.858;2023-06-19T00:01:30;32.88;31.00;38.04;;
69609;Laerm;56815;52.320;4.858;2023-06-19T00:01:41;32.40;30.68;35.76;;
69609;Laerm;56815;52.320;4.858;2023-06-19T00:01:51;32.61;30.61;34.47;;
69609;Laerm;56815;52.320;4.858;2023-06-19T00:02:47;31.85;30.04;34.32;;
69609;Laerm;56815;52.320;4.858;2023-06-19T00:03:03;31.64;29.79;34.68;;
69609;Laerm;56815;52.320;4.858;2023-06-19T00:03:16;32.23;29.72;35.50;;
69609;Laerm;56815;52.320;4.858;2023-06-19T00:03:26;32.02;30.40;33.94;;
69609;Laerm;56815;52.320;4.858;2023-06-19T00:03:43;31.87;30.15;34.86;;
69609;Laerm;56815;52.320;4.858;2023-06-19T00:03:56;31.97;29.88;34.24;;
69609;Laerm;56815;52.320;4.858;2023-06-19T00:04:06;32.90;30.75;41.34;;
69609;Laerm;56815;52.320;4.858;2023-06-19T00:04:17;32.27;30.36;43.50;;
69609;Laerm;56815;52.320;4.858;2023-06-19T00:04:36;32.77;30.36;38.45;;
69609;Laerm;56815;52.320;4.858;2023-06-19T00:04:48;33.00;31.35;42.32;;
69609;Laerm;56815;52.320;4.858;2023-06-19T00:05:04;32.15;30.44;33.81;;
69609;Laerm;56815;52.320;4.858;2023-06-19T00:05:17;32.86;30.84;36.08;;
69609;Laerm;56815;52.320;4.858;2023-06-19T00:05:35;33.43;30.88;44.08;;
69609;Laerm;56815;52.320;4.858;2023-06-19T00:05:45;32.61;30.13;37.98;;
69609;Laerm;56815;52.320;4.858;2023-06-19T00:05:56;31.75;29.99;38.86;;
69609;Laerm;56815;52.320;4.858;2023-06-19T00:06:06;31.73;30.31;35.25;;
69609;Laerm;56815;52.320;4.858;2023-06-19T00:06:46;31.65;29.25;42.85;;
69609;Laerm;56815;52.320;4.858;2023-06-19T00:07:01;31.90;29.99;33.56;;
69609;Laerm;56815;52.320;4.858;2023-06-19T00:07:11;31.91;30.19;33.48;;
69609;Laerm;56815;52.320;4.858;2023-06-19T00:07:27;31.73;30.20;33.37;;
69609;Laerm;56815;52.320;4.858;2023-06-19T00:07:58;34.12;29.97;45.85;;
69609;Laerm;56815;52.320;4.858;2023-06-19T00:08:09;39.56;29.98;45.44;;
69609;Laerm;56815;52.320;4.858;2023-06-19T00:08:19;30.91;29.54;32.77;;
69609;Laerm;56815;52.320;4.858;2023-06-19T00:08:30;30.95;29.35;33.27;;
69609;Laerm;56815;52.320;4.858;2023-06-19T00:08:40;31.14;29.61;33.15;;
69609;Laerm;56815;52.320;4.858;2023-06-19T00:09:19;31.08;28.78;34.71;;
69609;Laerm;56815;52.320;4.858;2023-06-19T00:09:29;30.98;29.31;33.29;;
69609;Laerm;56815;52.320;4.858;2023-06-19T00:09:39;32.29;30.07;35.22;;
69609;Laerm;56815;52.320;4.858;2023-06-19T00:09:52;31.78;29.94;34.51;;
69609;Laerm;56815;52.320;4.858;2023-06-19T00:10:03;32.32;29.89;35.44;;
69609;Laerm;56815;52.320;4.858;2023-06-19T00:10:14;32.89;30.03;37.58;;
69609;Laerm;56815;52.320;4.858;2023-06-19T00:10:27;32.18;29.77;36.57;;
69609;Laerm;56815;52.320;4.858;2023-06-19T00:10:58;31.48;29.40;37.71;;
69609;Laerm;56815;52.320;4.858;2023-06-19T00:11:08;30.82;29.21;32.73;;
69609;Laerm;56815;52.320;4.858;2023-06-19T00:11:18;31.20;28.78;42.80;;
69609;Laerm;56815;52.320;4.858;2023-06-19T00:11:29;30.66;28.93;32.88;;
69609;Laerm;56815;52.320;4.858;2023-06-19T00:11:39;31.47;29.75;36.02;;
69609;Laerm;56815;52.320;4.858;2023-06-19T00:11:52;31.18;29.61;34.29;;
69609;Laerm;56815;52.320;4.858;2023-06-19T00:12:05;31.81;29.57;40.23;;
69609;Laerm;56815;52.320;4.858;2023-06-19T00:12:30;30.83;29.22;33.62;;
69609;Laerm;56815;52.320;4.858;2023-06-19T00:12:46;30.56;28.96;32.89;;
69609;Laerm;56815;52.320;4.858;2023-06-19T00:13:00;30.13;28.68;32.39;;
69609;Laerm;56815;52.320;4.858;2023-06-19T00:13:18;30.16;28.60;32.72;;
69609;Laerm;56815;52.320;4.858;2023-06-19T00:13:29;30.17;28.78;31.49;;
69609;Laerm;56815;52.320;4.858;2023-06-19T00:14:00;30.74;29.25;32.16;;
69609;Laerm;56815;52.320;4.858;2023-06-19T00:14:57;30.47;28.52;33.36;;
69609;Laerm;56815;52.320;4.858;2023-06-19T00:15:08;30.68;29.04;32.20;;
69609;Laerm;56815;52.320;4.858;2023-06-19T00:15:19;31.37;29.18;32.92;;
69609;Laerm;56815;52.320;4.858;2023-06-19T00:15:30;31.20;29.30;33.43;;
69609;Laerm;56815;52.320;4.858;2023-06-19T00:15:40;30.84;29.16;32.74;;
69609;Laerm;56815;52.320;4.858;2023-06-19T00:15:50;31.91;29.70;33.87;;
69609;Laerm;56815;52.320;4.858;2023-06-19T00:16:01;30.84;29.14;33.23;;
69609;Laerm;56815;52.320;4.858;2023-06-19T00:16:11;30.43;29.09;32.52;;
69609;Laerm;56815;52.320;4.858;2023-06-19T00:16:24;30.43;28.91;32.97;;
69609;Laerm;56815;52.320;4.858;2023-06-19T00:16:45;31.20;29.38;35.06;;
69609;Laerm;56815;52.320;4.858;2023-06-19T00:17:00;30.80;29.17;32.96;;
69609;Laerm;56815;52.320;4.858;2023-06-19T00:17:13;31.53;29.65;34.17;;
69609;Laerm;56815;52.320;4.858;2023-06-19T00:17:39;30.60;28.75;32.66;;
69609;Laerm;56815;52.320;4.858;2023-06-19T00:17:49;30.65;29.41;31.91;;
69609;Laerm;56815;52.320;4.858;2023-06-19T00:18:20;30.90;29.33;32.89;;
69609;Laerm;56815;52.320;4.858;2023-06-19T00:18:59;30.49;28.47;33.38;;
69609;Laerm;56815;52.320;4.858;2023-06-19T00:19:15;30.96;29.00;34.31;;
69609;Laerm;56815;52.320;4.858;2023-06-19T00:20:19;31.91;29.31;46.75;;
69609;Laerm;56815;52.320;4.858;2023-06-19T00:20:45;30.81;29.40;33.22;;
69609;Laerm;56815;52.320;4.858;2023-06-19T00:20:56;31.56;29.54;34.04;;
69609;Laerm;56815;52.320;4.858;2023-06-19T00:21:12;31.19;29.49;33.34;;
69609;Laerm;56815;52.320;4.858;2023-06-19T00:21:28;30.91;28.96;34.58;;
69609;Laerm;56815;52.320;4.858;2023-06-19T00:21:39;30.83;29.18;32.79;;
69609;Laerm;56815;52.320;4.858;2023-06-19T00:21:49;31.37;29.63;35.54;;
69609;Laerm;56815;52.320;4.858;2023-06-19T00:22:00;31.28;29.45;40.26;;
69609;Laerm;56815;52.320;4.858;2023-06-19T00:22:10;31.14;29.50;34.34;;
69609;Laerm;56815;52.320;4.858;2023-06-19T00:22:20;31.62;29.95;33.00;;
69609;Laerm;56815;52.320;4.858;2023-06-19T00:22:31;31.14;29.55;33.04;;
69609;Laerm;56815;52.320;4.858;2023-06-19T00:22:42;32.42;29.90;36.95;;
69609;Laerm;56815;52.320;4.858;2023-06-19T00:22:52;31.03;29.16;34.21;;
69609;Laerm;56815;52.320;4.858;2023-06-19T00:23:02;32.30;30.73;35.86;;
69609;Laerm;56815;52.320;4.858;2023-06-19T00:23:13;31.98;29.68;36.98;;
69609;Laerm;56815;52.320;4.858;2023-06-19T00:23:26;31.10;29.46;33.00;;
69609;Laerm;56815;52.320;4.858;2023-06-19T00:23:40;32.47;30.06;35.08;;
69609;Laerm;56815;52.320;4.858;2023-06-19T00:23:55;31.91;30.34;34.50;;
69609;Laerm;56815;52.320;4.858;2023-06-19T00:24:16;31.61;29.95;34.04;;
69609;Laerm;56815;52.320;4.858;2023-06-19T00:24:27;31.71;29.88;33.67;;
69609;Laerm;56815;52.320;4.858;2023-06-19T00:24:37;32.07;30.32;34.51;;
69609;Laerm;56815;52.320;4.858;2023-06-19T00:24:47;36.86;31.57;40.31;;
69609;Laerm;56815;52.320;4.858;2023-06-19T00:24:58;42.78;33.97;64.78;;
69609;Laerm;56815;52.320;4.858;2023-06-19T00:25:08;37.20;34.54;41.24;;
69609;Laerm;56815;52.320;4.858;2023-06-19T00:25:18;45.27;39.46;49.75;;
69609;Laerm;56815;52.320;4.858;2023-06-19T00:25:29;41.00;37.21;43.89;;
69609;Laerm;56815;52.320;4.858;2023-06-19T00:25:43;39.85;35.87;42.67;;
69609;Laerm;56815;52.320;4.858;2023-06-19T00:25:54;42.19;35.50;49.24;;
69609;Laerm;56815;52.320;4.858;2023-06-19T00:26:14;41.58;36.36;47.55;;
69609;Laerm;56815;52.320;4.858;2023-06-19T00:26:24;37.21;34.09;41.23;;
69609;Laerm;56815;52.320;4.858;2023-06-19T00:26:35;35.47;32.30;39.15;;
69609;Laerm;56815;52.320;4.858;2023-06-19T00:26:45;34.44;32.10;36.31;;
69609;Laerm;56815;52.320;4.858;2023-06-19T00:26:56;33.11;30.86;36.24;;
69609;Laerm;56815;52.320;4.858;2023-06-19T00:27:15;32.37;30.36;35.91;;
69609;Laerm;56815;52.320;4.858;2023-06-19T00:27:30;32.90;30.75;35.77;;
69609;Laerm;56815;52.320;4.858;2023-06-19T00:27:41;32.26;30.62;34.49;;
69609;Laerm;56815;52.320;4.858;2023-06-19T00:27:51;32.37;30.46;34.16;;
69609;Laerm;56815;52.320;4.858;2023-06-19T00:28:01;31.74;29.50;40.40;;
69609;Laerm;56815;52.320;4.858;2023-06-19T00:28:12;30.88;29.33;32.52;;
69609;Laerm;56815;52.320;4.858;2023-06-19T00:28:23;30.74;28.93;32.44;;
69609;Laerm;56815;52.320;4.858;2023-06-19T00:28:34;31.04;29.45;33.35;;
69609;Laerm;56815;52.320;4.858;2023-06-19T00:28:44;31.10;29.52;34.28;;
69609;Laerm;56815;52.320;4.858;2023-06-19T00:29:03;31.38;29.53;39.75;;
69609;Laerm;56815;52.320;4.858;2023-06-19T00:29:14;31.40;29.52;33.91;;
69609;Laerm;56815;52.320;4.858;2023-06-19T00:29:27;32.49;29.53;41.66;;
69609;Laerm;56815;52.320;4.858;2023-06-19T00:29:38;30.87;28.97;33.03;;
69609;Laerm;56815;52.320;4.858;2023-06-19T00:29:48;30.79;29.38;32.28;;
69609;Laerm;56815;52.320;4.858;2023-06-19T00:29:58;31.68;29.75;35.24;;
69609;Laerm;56815;52.320;4.858;2023-06-19T00:30:15;31.98;29.16;36.48;;
69609;Laerm;56815;52.320;4.858;2023-06-19T00:30:25;30.79;29.19;33.48;;
69609;Laerm;56815;52.320;4.858;2023-06-19T00:30:36;31.88;29.89;34.70;;
69609;Laerm;56815;52.320;4.858;2023-06-19T00:30:46;30.72;28.75;32.74;;
69609;Laerm;56815;52.320;4.858;2023-06-19T00:30:56;29.97;28.43;31.86;;
69609;Laerm;56815;52.320;4.858;2023-06-19T00:31:06;30.14;28.71;32.22;;
69609;Laerm;56815;52.320;4.858;2023-06-19T00:31:17;30.30;29.00;32.07;;
69609;Laerm;56815;52.320;4.858;2023-06-19T00:31:28;31.29;29.25;35.20;;
69609;Laerm;56815;52.320;4.858;2023-06-19T00:31:50;31.09;29.41;33.07;;
69609;Laerm;56815;52.320;4.858;2023-06-19T00:32:09;30.88;28.99;34.43;;
69609;Laerm;56815;52.320;4.858;2023-06-19T00:32:20;31.12;28.64;33.59;;
69609;Laerm;56815;52.320;4.858;2023-06-19T00:32:30;30.16;29.03;32.22;;
69609;Laerm;56815;52.320;4.858;2023-06-19T00:32:40;29.81;28.61;31.62;;
69609;Laerm;56815;52.320;4.858;2023-06-19T00:32:57;30.10;28.36;33.69;;
69609;Laerm;56815;52.320;4.858;2023-06-19T00:33:07;31.09;28.99;33.61;;
69609;Laerm;56815;52.320;4.858;2023-06-19T00:33:18;30.12;28.53;32.93;;
69609;Laerm;56815;52.320;4.858;2023-06-19T00:33:28;30.27;28.55;33.00;;
69609;Laerm;56815;52.320;4.858;2023-06-19T00:33:39;29.72;28.45;31.71;;
69609;Laerm;56815;52.320;4.858;2023-06-19T00:33:49;29.37;27.91;31.38;;
69609;Laerm;56815;52.320;4.858;2023-06-19T00:34:00;29.45;28.17;31.86;;
69609;Laerm;56815;52.320;4.858;2023-06-19T00:34:10;29.63;28.19;31.41;;
69609;Laerm;56815;52.320;4.858;2023-06-19T00:34:21;29.52;28.08;31.86;;
69609;Laerm;56815;52.320;4.858;2023-06-19T00:34:34;30.03;28.52;32.17;;
69609;Laerm;56815;52.320;4.858;2023-06-19T00:34:44;30.04;28.41;32.84;;
69609;Laerm;56815;52.320;4.858;2023-06-19T00:34:54;30.33;29.19;31.79;;
69609;Laerm;56815;52.320;4.858;2023-06-19T00:35:08;29.64;28.37;30.94;;
69609;Laerm;56815;52.320;4.858;2023-06-19T00:35:18;29.80;28.41;37.04;;
69609;Laerm;56815;52.320;4.858;2023-06-19T00:35:28;29.68;28.58;30.87;;
69609;Laerm;56815;52.320;4.858;2023-06-19T00:35:39;30.35;28.48;32.57;;
69609;Laerm;56815;52.320;4.858;2023-06-19T00:35:58;32.36;29.89;46.53;;
69609;Laerm;56815;52.320;4.858;2023-06-19T00:36:12;30.04;28.53;32.26;;
69609;Laerm;56815;52.320;4.858;2023-06-19T00:36:22;30.02;28.70;32.01;;
69609;Laerm;56815;52.320;4.858;2023-06-19T00:36:36;30.05;28.44;31.76;;
69609;Laerm;56815;52.320;4.858;2023-06-19T00:36:50;31.03;29.42;32.79;;
69609;Laerm;56815;52.320;4.858;2023-06-19T00:37:01;31.03;29.53;33.01;;
69609;Laerm;56815;52.320;4.858;2023-06-19T00:37:11;30.93;29.32;32.29;;
69609;Laerm;56815;52.320;4.858;2023-06-19T00:37:23;31.30;29.59;32.94;;
69609;Laerm;56815;52.320;4.858;2023-06-19T00:37:33;29.99;28.87;32.69;;
69609;Laerm;56815;52.320;4.858;2023-06-19T00:37:43;29.71;28.50;31.16;;
69609;Laerm;56815;52.320;4.858;2023-06-19T00:37:57;30.21;28.78;32.39;;
69609;Laerm;56815;52.320;4.858;2023-06-19T00:38:10;29.81;28.13;37.51;;
69609;Laerm;56815;52.320;4.858;2023-06-19T00:38:22;29.44;27.96;31.83;;
69609;Laerm;56815;52.320;4.858;2023-06-19T00:38:33;29.07;27.70;31.32;;
69609;Laerm;56815;52.320;4.858;2023-06-19T00:38:44;29.27;28.08;35.25;;
69609;Laerm;56815;52.320;4.858;2023-06-19T00:38:54;29.64;28.30;31.97;;
69609;Laerm;56815;52.320;4.858;2023-06-19T00:39:05;29.66;28.51;36.23;;
69609;Laerm;56815;52.320;4.858;2023-06-19T00:39:15;29.78;28.37;31.30;;
69609;Laerm;56815;52.320;4.858;2023-06-19T00:39:25;31.04;28.75;45.74;;
69609;Laerm;56815;52.320;4.858;2023-06-19T00:39:36;29.28;28.08;32.30;;
69609;Laerm;56815;52.320;4.858;2023-06-19T00:39:46;29.41;27.92;31.67;;
69609;Laerm;56815;52.320;4.858;2023-06-19T00:39:56;29.15;27.74;31.64;;
69609;Laerm;56815;52.320;4.858;2023-06-19T00:40:07;29.12;28.09;30.45;;
69609;Laerm;56815;52.320;4.858;2023-06-19T00:40:31;29.17;27.98;31.44;;
69609;Laerm;56815;52.320;4.858;2023-06-19T00:40:42;29.13;27.45;30.83;;
69609;Laerm;56815;52.320;4.858;2023-06-19T00:40:52;29.38;28.29;31.01;;
69609;Laerm;56815;52.320;4.858;2023-06-19T00:41:03;30.22;28.38;32.08;;
69609;Laerm;56815;52.320;4.858;2023-06-19T00:41:15;31.23;29.43;34.31;;
69609;Laerm;56815;52.320;4.858;2023-06-19T00:41:26;33.48;29.37;38.34;;
69609;Laerm;56815;52.320;4.858;2023-06-19T00:41:37;37.12;33.32;42.81;;
69609;Laerm;56815;52.320;4.858;2023-06-19T00:41:49;35.07;31.71;39.20;;
69609;Laerm;56815;52.320;4.858;2023-06-19T00:41:59;35.17;30.65;45.82;;
69609;Laerm;56815;52.320;4.858;2023-06-19T00:42:09;30.72;28.98;33.08;;
69609;Laerm;56815;52.320;4.858;2023-06-19T00:42:20;30.11;28.75;31.96;;
69609;Laerm;56815;52.320;4.858;2023-06-19T00:42:30;29.84;28.67;31.98;;
69609;Laerm;56815;52.320;4.858;2023-06-19T00:42:40;29.70;28.57;30.85;;
69609;Laerm;56815;52.320;4.858;2023-06-19T00:42:51;29.42;28.42;30.56;;
69609;Laerm;56815;52.320;4.858;2023-06-19T00:43:01;29.48;28.09;31.51;;
69609;Laerm;56815;52.320;4.858;2023-06-19T00:43:12;35.60;27.88;48.15;;
69609;Laerm;56815;52.320;4.858;2023-06-19T00:43:22;30.55;28.06;44.19;;
69609;Laerm;56815;52.320;4.858;2023-06-19T00:43:33;29.36;28.20;31.22;;
69609;Laerm;56815;52.320;4.858;2023-06-19T00:43:43;29.34;27.84;32.26;;
69609;Laerm;56815;52.320;4.858;2023-06-19T00:43:54;29.13;27.98;31.22;;
69609;Laerm;56815;52.320;4.858;2023-06-19T00:44:04;29.02;27.90;30.15;;
69609;Laerm;56815;52.320;4.858;2023-06-19T00:44:14;30.75;28.04;49.54;;
69609;Laerm;56815;52.320;4.858;2023-06-19T00:44:25;31.51;28.60;33.63;;
69609;Laerm;56815;52.320;4.858;2023-06-19T00:44:35;35.11;31.49;38.85;;
69609;Laerm;56815;52.320;4.858;2023-06-19T00:44:45;35.26;31.25;39.17;;
69609;Laerm;56815;52.320;4.858;2023-06-19T00:44:55;31.92;30.41;34.48;;
69609;Laerm;56815;52.320;4.858;2023-06-19T00:45:06;31.17;29.79;33.76;;
69609;Laerm;56815;52.320;4.858;2023-06-19T00:45:16;30.98;29.52;32.36;;
69609;Laerm;56815;52.320;4.858;2023-06-19T00:45:27;30.59;29.20;32.08;;
69609;Laerm;56815;52.320;4.858;2023-06-19T00:45:37;29.72;28.37;31.55;;
69609;Laerm;56815;52.320;4.858;2023-06-19T00:45:47;29.63;28.44;31.70;;
69609;Laerm;56815;52.320;4.858;2023-06-19T00:45:58;29.78;28.14;31.91;;
69609;Laerm;56815;52.320;4.858;2023-06-19T00:46:08;32.10;29.87;35.24;;
69609;Laerm;56815;52.320;4.858;2023-06-19T00:46:19;30.97;29.24;33.78;;
69609;Laerm;56815;52.320;4.858;2023-06-19T00:46:29;31.17;29.53;33.58;;
69609;Laerm;56815;52.320;4.858;2023-06-19T00:46:40;31.72;29.57;34.18;;
69609;Laerm;56815;52.320;4.858;2023-06-19T00:46:51;32.70;29.78;49.60;;
69609;Laerm;56815;52.320;4.858;2023-06-19T00:47:03;32.20;29.18;49.19;;
69609;Laerm;56815;52.320;4.858;2023-06-19T00:47:14;31.16;29.08;42.16;;
69609;Laerm;56815;52.320;4.858;2023-06-19T00:47:24;29.89;28.61;31.59;;
69609;Laerm;56815;52.320;4.858;2023-06-19T00:47:35;30.27;28.91;31.74;;
69609;Laerm;56815;52.320;4.858;2023-06-19T00:47:46;29.57;28.18;30.76;;
69609;Laerm;56815;52.320;4.858;2023-06-19T00:47:56;30.18;28.69;32.25;;
69609;Laerm;56815;52.320;4.858;2023-06-19T00:48:07;30.30;28.84;32.57;;
69609;Laerm;56815;52.320;4.858;2023-06-19T00:48:17;30.85;29.45;32.20;;
69609;Laerm;56815;52.320;4.858;2023-06-19T00:48:28;30.08;28.79;31.57;;
69609;Laerm;56815;52.320;4.858;2023-06-19T00:48:45;30.40;29.02;31.77;;
69609;Laerm;56815;52.320;4.858;2023-06-19T00:49:30;29.81;27.79;32.20;;
69609;Laerm;56815;52.320;4.858;2023-06-19T00:49:40;30.69;28.20;38.23;;
69609;Laerm;56815;52.320;4.858;2023-06-19T00:49:51;34.51;29.22;44.13;;
69609;Laerm;56815;52.320;4.858;2023-06-19T00:50:01;42.36;31.29;53.05;;
69609;Laerm;56815;52.320;4.858;2023-06-19T00:50:12;36.56;30.42;46.57;;
69609;Laerm;56815;52.320;4.858;2023-06-19T00:50:54;38.12;31.04;48.62;;
69609;Laerm;56815;52.320;4.858;2023-06-19T00:51:05;41.02;36.02;48.13;;
69609;Laerm;56815;52.320;4.858;2023-06-19T00:51:16;42.23;35.70;53.06;;
69609;Laerm;56815;52.320;4.858;2023-06-19T00:51:26;39.13;33.84;44.60;;
69609;Laerm;56815;52.320;4.858;2023-06-19T00:51:39;35.16;32.29;40.57;;
69609;Laerm;56815;52.320;4.858;2023-06-19T00:51:58;33.86;30.95;39.50;;
69609;Laerm;56815;52.320;4.858;2023-06-19T00:52:08;33.80;31.91;40.18;;
69609;Laerm;56815;52.320;4.858;2023-06-19T00:52:18;36.69;32.59;43.63;;
69609;Laerm;56815;52.320;4.858;2023-06-19T00:52:29;34.66;32.11;37.87;;
69609;Laerm;56815;52.320;4.858;2023-06-19T00:52:39;39.11;33.87;44.18;;
69609;Laerm;56815;52.320;4.858;2023-06-19T00:52:49;38.76;33.80;47.83;;
69609;Laerm;56815;52.320;4.858;2023-06-19T00:53:32;32.71;29.92;35.93;;
69609;Laerm;56815;52.320;4.858;2023-06-19T00:53:46;41.61;30.84;63.43;;
69609;Laerm;56815;52.320;4.858;2023-06-19T00:53:57;36.66;31.80;44.26;;
69609;Laerm;56815;52.320;4.858;2023-06-19T00:54:07;31.20;29.28;33.46;;
69609;Laerm;56815;52.320;4.858;2023-06-19T00:54:18;30.22;28.75;34.82;;
69609;Laerm;56815;52.320;4.858;2023-06-19T00:54:29;30.03;28.84;31.23;;
69609;Laerm;56815;52.320;4.858;2023-06-19T00:54:40;30.82;29.21;33.40;;
69609;Laerm;56815;52.320;4.858;2023-06-19T00:54:50;34.62;29.56;49.82;;
69609;Laerm;56815;52.320;4.858;2023-06-19T00:55:00;30.66;29.20;36.32;;
69609;Laerm;56815;52.320;4.858;2023-06-19T00:55:16;30.36;29.10;33.89;;
69609;Laerm;56815;52.320;4.858;2023-06-19T00:55:29;30.34;28.84;32.58;;
69609;Laerm;56815;52.320;4.858;2023-06-19T00:55:41;31.62;29.62;33.29;;
69609;Laerm;56815;52.320;4.858;2023-06-19T00:55:53;34.16;32.16;42.43;;
69609;Laerm;56815;52.320;4.858;2023-06-19T00:56:04;33.01;30.52;44.08;;
69609;Laerm;56815;52.320;4.858;2023-06-19T00:56:15;32.54;30.47;35.44;;
69609;Laerm;56815;52.320;4.858;2023-06-19T00:56:46;34.85;31.27;45.63;;
69609;Laerm;56815;52.320;4.858;2023-06-19T00:56:58;37.53;32.04;49.63;;
69609;Laerm;56815;52.320;4.858;2023-06-19T00:57:18;44.10;38.17;49.97;;
69609;Laerm;56815;52.320;4.858;2023-06-19T00:57:28;39.44;33.99;50.02;;
69609;Laerm;56815;52.320;4.858;2023-06-19T00:57:39;35.00;33.09;40.60;;
69609;Laerm;56815;52.320;4.858;2023-06-19T00:57:49;36.97;33.03;41.57;;
69609;Laerm;56815;52.320;4.858;2023-06-19T00:58:51;38.47;31.89;48.44;;
69609;Laerm;56815;52.320;4.858;2023-06-19T00:59:03;45.45;38.37;53.24;;
69609;Laerm;56815;52.320;4.858;2023-06-19T00:59:16;43.98;35.74;49.34;;
69609;Laerm;56815;52.320;4.858;2023-06-19T00:59:30;38.73;32.92;43.62;;
69609;Laerm;56815;52.320;4.858;2023-06-19T00:59:41;36.67;34.15;40.57;;
69609;Laerm;56815;52.320;4.858;2023-06-19T00:59:51;40.27;36.44;43.56;;
69609;Laerm;56815;52.320;4.858;2023-06-19T01:00:09;39.18;34.72;42.25;;
69609;Laerm;56815;52.320;4.858;2023-06-19T01:00:22;31.99;30.28;36.24;;
69609;Laerm;56815;52.320;4.858;2023-06-19T01:00:33;34.11;30.73;46.07;;
69609;Laerm;56815;52.320;4.858;2023-06-19T01:01:06;31.88;29.91;34.57;;
69609;Laerm;56815;52.320;4.858;2023-06-19T01:01:19;31.78;29.48;34.16;;
69609;Laerm;56815;52.320;4.858;2023-06-19T01:01:29;31.26;28.89;42.07;;
69609;Laerm;56815;52.320;4.858;2023-06-19T01:01:40;30.29;29.01;31.65;;
69609;Laerm;56815;52.320;4.858;2023-06-19T01:01:54;30.64;29.14;32.52;;
69609;Laerm;56815;52.320;4.858;2023-06-19T01:02:07;30.99;28.91;35.62;;
69609;Laerm;56815;52.320;4.858;2023-06-19T01:02:17;31.26;29.33;41.07;;
69609;Laerm;56815;52.320;4.858;2023-06-19T01:02:27;31.29;29.95;33.20;;
69609;Laerm;56815;52.320;4.858;2023-06-19T01:02:38;30.89;29.40;34.34;;
69609;Laerm;56815;52.320;4.858;2023-06-19T01:02:51;31.04;29.56;34.02;;
69609;Laerm;56815;52.320;4.858;2023-06-19T01:03:19;31.19;29.63;36.38;;
69609;Laerm;56815;52.320;4.858;2023-06-19T01:03:34;30.93;28.82;37.94;;
69609;Laerm;56815;52.320;4.858;2023-06-19T01:03:46;30.01;28.87;31.95;;
69609;Laerm;56815;52.320;4.858;2023-06-19T01:03:56;31.31;29.79;35.50;;
69609;Laerm;56815;52.320;4.858;2023-06-19T01:04:07;33.07;30.70;37.59;;
69609;Laerm;56815;52.320;4.858;2023-06-19T01:04:17;32.22;30.47;34.07;;
69609;Laerm;56815;52.320;4.858;2023-06-19T01:04:27;31.01;29.84;32.99;;
69609;Laerm;56815;52.320;4.858;2023-06-19T01:04:38;31.35;29.50;34.78;;
69609;Laerm;56815;52.320;4.858;2023-06-19T01:04:48;33.75;30.89;36.94;;
69609;Laerm;56815;52.320;4.858;2023-06-19T01:04:58;32.21;30.46;35.70;;
69609;Laerm;56815;52.320;4.858;2023-06-19T01:05:08;30.94;29.27;33.89;;
69609;Laerm;56815;52.320;4.858;2023-06-19T01:05:19;32.44;29.73;35.29;;
69609;Laerm;56815;52.320;4.858;2023-06-19T01:05:29;33.14;30.84;36.22;;
69609;Laerm;56815;52.320;4.858;2023-06-19T01:05:40;36.86;32.53;41.64;;
69609;Laerm;56815;52.320;4.858;2023-06-19T01:05:51;36.89;34.02;41.49;;
69609;Laerm;56815;52.320;4.858;2023-06-19T01:06:09;33.12;30.54;36.02;;
69609;Laerm;56815;52.320;4.858;2023-06-19T01:06:31;33.19;29.95;48.62;;
69609;Laerm;56815;52.320;4.858;2023-06-19T01:07:11;31.01;28.86;33.71;;
69609;Laerm;56815;52.320;4.858;2023-06-19T01:07:32;34.61;32.38;37.42;;
69609;Laerm;56815;52.320;4.858;2023-06-19T01:08:49;31.36;29.40;33.30;;
69609;Laerm;56815;52.320;4.858;2023-06-19T01:09:34;32.46;29.35;39.29;;
69609;Laerm;56815;52.320;4.858;2023-06-19T01:09:50;36.13;31.89;48.56;;
69609;Laerm;56815;52.320;4.858;2023-06-19T01:10:06;31.99;30.12;39.60;;
69609;Laerm;56815;52.320;4.858;2023-06-19T01:10:56;32.56;30.08;37.21;;
69609;Laerm;56815;52.320;4.858;2023-06-19T01:11:45;33.20;30.41;39.05;;
69609;Laerm;56815;52.320;4.858;2023-06-19T01:11:57;32.54;30.12;35.44;;
69609;Laerm;56815;52.320;4.858;2023-06-19T01:12:15;32.13;29.66;38.96;;
69609;Laerm;56815;52.320;4.858;2023-06-19T01:12:33;30.90;29.01;32.55;;
69609;Laerm;56815;52.320;4.858;2023-06-19T01:12:50;35.60;29.92;44.48;;
69609;Laerm;56815;52.320;4.858;2023-06-19T01:13:17;37.27;31.81;43.11;;
69609;Laerm;56815;52.320;4.858;2023-06-19T01:14:14;32.97;29.99;37.47;;
69609;Laerm;56815;52.320;4.858;2023-06-19T01:14:39;33.61;31.26;40.62;;
69609;Laerm;56815;52.320;4.858;2023-06-19T01:14:57;33.85;30.82;39.21;;
69609;Laerm;56815;52.320;4.858;2023-06-19T01:15:08;32.39;30.55;36.48;;
69609;Laerm;56815;52.320;4.858;2023-06-19T01:15:25;31.32;29.92;32.91;;
69609;Laerm;56815;52.320;4.858;2023-06-19T01:15:39;31.95;30.38;33.36;;
69609;Laerm;56815;52.320;4.858;2023-06-19T01:15:50;32.65;30.69;35.34;;
69609;Laerm;56815;52.320;4.858;2023-06-19T01:16:04;32.56;29.83;40.35;;
69609;Laerm;56815;52.320;4.858;2023-06-19T01:16:24;32.00;29.68;36.78;;
69609;Laerm;56815;52.320;4.858;2023-06-19T01:16:35;31.91;30.17;33.80;;
69609;Laerm;56815;52.320;4.858;2023-06-19T01:16:46;32.73;30.34;38.31;;
69609;Laerm;56815;52.320;4.858;2023-06-19T01:16:57;35.00;31.27;41.87;;
69609;Laerm;56815;52.320;4.858;2023-06-19T01:17:17;33.49;31.81;35.66;;
69609;Laerm;56815;52.320;4.858;2023-06-19T01:17:27;34.65;31.78;47.30;;
69609;Laerm;56815;52.320;4.858;2023-06-19T01:17:38;33.67;31.07;36.09;;
69609;Laerm;56815;52.320;4.858;2023-06-19T01:17:49;34.91;32.93;37.45;;
69609;Laerm;56815;52.320;4.858;2023-06-19T01:18:02;32.62;31.04;34.47;;
69609;Laerm;56815;52.320;4.858;2023-06-19T01:18:16;32.97;30.99;35.53;;
69609;Laerm;56815;52.320;4.858;2023-06-19T01:18:33;35.70;32.48;39.97;;
69609;Laerm;56815;52.320;4.858;2023-06-19T01:18:46;33.53;31.65;35.59;;
69609;Laerm;56815;52.320;4.858;2023-06-19T01:18:59;33.94;31.64;36.33;;
69609;Laerm;56815;52.320;4.858;2023-06-19T01:19:12;33.17;30.93;36.35;;
69609;Laerm;56815;52.320;4.858;2023-06-19T01:19:29;32.34;30.42;36.37;;
69609;Laerm;56815;52.320;4.858;2023-06-19T01:19:40;33.29;31.46;35.75;;
69609;Laerm;56815;52.320;4.858;2023-06-19T01:19:53;32.92;30.33;36.26;;
69609;Laerm;56815;52.320;4.858;2023-06-19T01:20:04;32.17;29.41;36.12;;
69609;Laerm;56815;52.320;4.858;2023-06-19T01:20:20;30.87;29.30;35.27;;
69609;Laerm;56815;52.320;4.858;2023-06-19T01:20:31;30.93;29.57;32.55;;
69609;Laerm;56815;52.320;4.858;2023-06-19T01:20:41;30.55;29.39;31.83;;
69609;Laerm;56815;52.320;4.858;2023-06-19T01:20:52;30.45;29.24;31.80;;
69609;Laerm;56815;52.320;4.858;2023-06-19T01:21:11;31.48;29.66;34.75;;
69609;Laerm;56815;52.320;4.858;2023-06-19T01:21:49;31.44;29.57;33.91;;
69609;Laerm;56815;52.320;4.858;2023-06-19T01:22:05;32.03;30.21;41.77;;
69609;Laerm;56815;52.320;4.858;2023-06-19T01:22:47;31.07;29.49;34.30;;
69609;Laerm;56815;52.320;4.858;2023-06-19T01:23:51;32.15;29.02;43.78;;